Terminal Aerodrome Forecast
Issued by NWS Dodge City, KS

Home | Current Version | Previous Version | Text Only | Print | Product List | Glossary On
Versions: 1 2 3 4 5 6 7 8 9 10 11 12 13 14 15 16 17 18 19 20
000
FTUS43 KDDC 201750 RRA
TAFDDC
TAF
KDDC 201750Z 2018/2118 19009KT P6SM SKC
     FM202200 13007KT P6SM OVC100
     FM210900 VRB04KT 2SM BR OVC007
      TEMPO 2109/2112 VRB04KT 3/4SM -DZ BR OVC004
     FM211600 VRB04KT P6SM BKN030=

USA.gov is the U.S. government's official web portal to all federal, state and local government web resources and services.